Nearby METAR Reports

 

EBAW - Antwerp/Deurne, Belgium
Distance from station: EKA 9km
Päivitetty: 19/07/2024 20:50
Selkeätä
Selkeätä
 Tuulen suunta KA
Tuuli: KA 6 km/h
Lämpötila: 26°C
Kastepiste: 17°C
Kosteus: 58%
Ilmanpaine: 1015 hPa
Yhteenveto: Selkeätä
Visibility: greater than 10 km
2024/07/19 18:50 EBAW 191850Z 13003KT CAVOK 26/17 Q1015 NOSIG
EHWO - Woensdrecht Rnla, Netherlands
Distance from station: PLU 20km
Päivitetty: 19/07/2024 20:55
Selkeätä
Selkeätä
 Tuulen suunta KA
Tuuli: KA 4 km/h
Lämpötila: 26°C
Kastepiste: 18°C
Kosteus: 61%
Ilmanpaine: 1015 hPa
Clouds: Selkeätä
Visibility: 10 km
2024/07/19 18:55 EHWO 191855Z AUTO 13002KT 9999 NCD 26/18 Q1015 BLU
 
EBBR - Brussels Nationa, Belgium
Distance from station: E 43km
Päivitetty: 19/07/2024 20:50
Selkeätä
Selkeätä
 Tuulen suunta IKA
Tuuli: IKA 6 km/h
Lämpötila: 26°C
Kastepiste: 17°C
Kosteus: 58%
Ilmanpaine: 1015 hPa
Yhteenveto: Selkeätä
Visibility: greater than 10 km
2024/07/19 18:50 EBBR 191850Z 11003KT CAVOK 26/17 Q1015 NOSIG
EHGR - Gilze-Rijen Rnla, Netherlands
Distance from station: KO 47km
Päivitetty: 19/07/2024 20:55
Selkeätä
Selkeätä
 Tuulen suunta IKA
Tuuli: IKA 6 km/h
Lämpötila: 27°C
Heat Index: 28°C
Kastepiste: 18°C
Kosteus: 58%
Ilmanpaine: 1015 hPa
Clouds: Selkeätä
Visibility: 10 km
2024/07/19 18:55 EHGR 191855Z AUTO 12003KT 9999 NCD 27/18 Q1015 BLU
 
EBDT - Schaffen, Belgium
Distance from station: IKA 54km
Päivitetty: 19/07/2024 20:55
Selkeätä
Selkeätä
 Tuulen suunta KA
Tuuli: KA 7 km/h
Lämpötila: 26°C
Kastepiste: 15°C
Kosteus: 51%
Ilmanpaine: 1015 hPa
Clouds: Selkeätä
Visibility: 10 km
2024/07/19 18:55 EBDT 191855Z AUTO 14004KT 9999 NCD 26/15 Q1015 BLU
EHFS - Vlissingen, Netherlands
Distance from station: LLU 60km
Päivitetty: 19/07/2024 20:55
Puolipilvistä
Puolipilvistä
 Tuulen suunta KA
Tuuli: KA 15 km/h
Lämpötila: 25°C
Kastepiste: 19°C
Kosteus: 69%
Ilmanpaine: 1014 hPa
Clouds: Puolipilvistä
Visibility: 10 km
2024/07/19 18:55 EHFS 191855Z AUTO 13008KT 9999 NSC 25/19 Q1014
 
EBBE - Beauvechain (baf, Belgium
Distance from station: EKA 64km
Päivitetty: 19/07/2024 20:55
Few Clouds
Few Clouds
 Tuulen suunta I
Tuuli: I 7 km/h
Lämpötila: 25°C
Kastepiste: 16°C
Kosteus: 57%
Ilmanpaine: 1015 hPa
Clouds: Few Clouds
Visibility: 10 km
Cloud details: Few Clouds 4267 m
2024/07/19 18:55 EBBE 191855Z AUTO 08004KT 9999 FEW140/// 25/16 Q1015 BLU
EHEH - Eindhoven Rnlafb, Netherlands
Distance from station: IKO 69km
Päivitetty: 19/07/2024 20:55
Selkeätä
Selkeätä
 Tuulen suunta IKA
Tuuli: IKA 9 km/h
Lämpötila: 27°C
Heat Index: 27°C
Kastepiste: 14°C
Kosteus: 45%
Ilmanpaine: 1015 hPa
Clouds: Selkeätä
Visibility: 10 km
2024/07/19 18:55 EHEH 191855Z AUTO 12005KT 090V160 9999 NCD 27/14 Q1015 BLU NOSIG RMK TREND REMOTE BY EHWX
 
EBBL - Kleine-Brogel(Ba, Belgium
Distance from station: I 74km
Päivitetty: 19/07/2024 20:55
Selkeätä
Selkeätä
 Tuulen suunta varies
Tuuli: varies 2 km/h
Lämpötila: 25°C
Kastepiste: 15°C
Kosteus: 54%
Ilmanpaine: 1015 hPa
Clouds: Selkeätä
Visibility: 10 km
2024/07/19 18:55 EBBL 191855Z AUTO VRB01KT 9999 NCD 25/15 Q1015 BLU
EHRD - Rotterdam Airpor, Netherlands
Distance from station: P 75km
Päivitetty: 19/07/2024 20:55
Selkeätä
Selkeätä
 Tuulen suunta I
Tuuli: I 11 km/h
Lämpötila: 27°C
Heat Index: 28°C
Kastepiste: 17°C
Kosteus: 54%
Ilmanpaine: 1015 hPa
Clouds: Selkeätä
Visibility: 10 km
2024/07/19 18:55 EHRD 191855Z AUTO 10006KT 070V130 9999 NCD 27/17 Q1015 NOSIG
 
EHSC - Goeree Le Sea, Netherlands
Distance from station: LU 89km
Päivitetty: 19/07/2024 20:55

 Tuulen suunta EKA
Tuuli: EKA 13 km/h
Lämpötila: 25°C
Kastepiste: 17°C
Kosteus: 61%
Ilmanpaine: 1015 hPa
Visibility: 10 km
2024/07/19 18:55 EHSC 191855Z AUTO 16007KT 9999 ///////// 25/17 Q1015 W18/H3
EBCI - Charleroi/Gossel, Belgium
Distance from station: E 90km
Päivitetty: 19/07/2024 20:50
Selkeätä
Selkeätä
 Tuulen suunta IKA
Tuuli: IKA 7 km/h
Lämpötila: 26°C
Kastepiste: 15°C
Kosteus: 51%
Ilmanpaine: 1016 hPa
Yhteenveto: Selkeätä
Visibility: greater than 10 km
2024/07/19 18:50 EBCI 191850Z 11004KT CAVOK 26/15 Q1016 NOSIG
 
EBCV - Chievres Ab, Belgium
Distance from station: ELO 90km
Päivitetty: 19/07/2024 20:55
Enimmäkseen pilvistä
Enimmäkseen pilvistä
 Tuulen suunta IKA
Tuuli: IKA 7 km/h
Lämpötila: 26°C
Kastepiste: 19°C
Kosteus: 65%
Ilmanpaine: 1014 hPa
Clouds: Enimmäkseen pilvistä
Visibility: 10 km
Cloud details: Few Clouds 3048 m
Puolipilvistä 3658 m
Enimmäkseen pilvistä 4267 m
2024/07/19 18:55 EBCV 191855Z AUTO 12004KT 9999 FEW100/// SCT120/// BKN140/// 26/19 Q1014 BLU
EHVK - Volkel Rnlafb, Netherlands
Distance from station: IKO 97km
Päivitetty: 19/07/2024 20:55
Selkeätä
Selkeätä
 Tuulen suunta I
Tuuli: I 9 km/h
Lämpötila: 25°C
Kastepiste: 16°C
Kosteus: 57%
Ilmanpaine: 1015 hPa
Clouds: Selkeätä
Visibility: 10 km
2024/07/19 18:55 EHVK 191855Z AUTO 09005KT 9999 NCD 25/16 Q1015 BLU
 
EBLG - Bierset/Liege (c, Belgium
Distance from station: KA 102km
Päivitetty: 19/07/2024 20:50
Selkeätä
Selkeätä
 Tuulen suunta I
Tuuli: I 11 km/h
Lämpötila: 26°C
Kastepiste: 14°C
Kosteus: 48%
Ilmanpaine: 1016 hPa
Yhteenveto: Selkeätä
Visibility: greater than 10 km
2024/07/19 18:50 EBLG 191850Z 09006KT CAVOK 26/14 Q1016 NOSIG
EHBK - Zuid-Limburg/Bee, Netherlands
Distance from station: IKA 102km
Päivitetty: 19/07/2024 20:55
Puolipilvistä
Puolipilvistä
 Tuulen suunta I
Tuuli: I 11 km/h
Lämpötila: 25°C
Kastepiste: 15°C
Kosteus: 54%
Ilmanpaine: 1016 hPa
Clouds: Puolipilvistä
Visibility: 10 km
2024/07/19 18:55 EHBK 191855Z AUTO 08006KT 9999 NSC 25/15 Q1016 NOSIG
 
EBOS - Oostende Airport, Belgium
Distance from station: L 108km
Päivitetty: 19/07/2024 20:50
Selkeätä
Selkeätä
 Tuulen suunta IKO
Tuuli: IKO 11 km/h
Lämpötila: 26°C
Kastepiste: 17°C
Kosteus: 58%
Ilmanpaine: 1014 hPa
Yhteenveto: Selkeätä
Visibility: greater than 10 km
2024/07/19 18:50 EBOS 191850Z 07006KT CAVOK 26/17 Q1014 NOSIG
EHSA - Euro Platform, Netherlands
Distance from station: LU 112km
Päivitetty: 19/07/2024 20:55

 Tuulen suunta IKO
Tuuli: IKO 17 km/h
Lämpötila: 23°C
Kastepiste: 18°C
Kosteus: 74%
Ilmanpaine: 1014 hPa
Visibility: 10 km
2024/07/19 18:55 EHSA 191855Z AUTO 07009KT 9999 ///////// 23/18 Q1014 W17/H2
 
EHAM - Amsterdam/Schiph, Netherlands
Distance from station: PKO 118km
Päivitetty: 19/07/2024 20:55
Selkeätä
Selkeätä
 Tuulen suunta IKA
Tuuli: IKA 11 km/h
Lämpötila: 26°C
Kastepiste: 18°C
Kosteus: 61%
Ilmanpaine: 1015 hPa
Yhteenveto: Selkeätä
Visibility: greater than 10 km
2024/07/19 18:55 EHAM 191855Z 12006KT CAVOK 26/18 Q1015 NOSIG
ETNG - Geilenkirchen(Na, Germany
Distance from station: IKA 118km
Päivitetty: 19/07/2024 20:50
Vaihetelvaa
Vaihetelvaa
 Tuulen suunta I
Tuuli: I 6 km/h
Lämpötila: 26°C
Kastepiste: 16°C
Kosteus: 54%
Ilmanpaine: 1016 hPa
Clouds: Vaihetelvaa
Visibility: 10 km
Cloud details: Few Clouds 4877 m
Vaihetelvaa 5486 m
2024/07/19 18:50 ETNG 191850Z AUTO 08003KT 9999 // FEW160/// OVC180/// 26/16 Q1016